createdAt,value
2022-08-12T00:00:39.193Z,66.10
2022-08-12T00:03:29.416Z,66.10
2022-08-12T00:06:22.130Z,66.40
2022-08-12T00:09:12.819Z,67.00
2022-08-12T00:12:03.881Z,67.40
2022-08-12T00:14:55.179Z,67.40
2022-08-12T00:17:45.607Z,67.20
2022-08-12T00:20:36.816Z,67.10
2022-08-12T00:23:28.072Z,67.40
2022-08-12T00:26:22.373Z,68.10
2022-08-12T00:29:15.507Z,68.60
2022-08-12T00:32:06.152Z,68.30
2022-08-12T00:35:00.168Z,69.00
2022-08-12T00:37:59.565Z,69.40
2022-08-12T00:40:50.930Z,69.30
2022-08-12T00:43:24.974Z,69.80
2022-08-12T00:46:16.032Z,69.80
2022-08-12T00:48:49.726Z,69.70
2022-08-12T00:51:22.819Z,69.20
2022-08-12T00:53:54.932Z,68.80
2022-08-12T00:56:29.018Z,68.20
2022-08-12T00:59:04.273Z,67.70
2022-08-12T01:02:10.312Z,67.30
2022-08-12T01:04:49.375Z,66.80
2022-08-12T01:07:43.520Z,66.60
2022-08-12T01:10:33.956Z,66.40
2022-08-12T01:13:18.815Z,66.20
2022-08-12T01:15:58.377Z,66.10
2022-08-12T01:18:36.583Z,65.90
2022-08-12T01:21:27.840Z,66.00
2022-08-12T01:24:29.942Z,65.80
2022-08-12T01:26:59.779Z,65.80
2022-08-12T01:29:34.926Z,65.70
2022-08-12T01:32:11.042Z,65.70
2022-08-12T01:34:51.192Z,66.40
2022-08-12T01:37:26.623Z,66.40
2022-08-12T01:40:35.492Z,66.60
2022-08-12T01:42:58.562Z,66.60
2022-08-12T01:45:40.666Z,66.60
2022-08-12T01:48:29.157Z,66.80
2022-08-12T01:52:04.509Z,66.10
2022-08-12T01:54:15.688Z,66.10
2022-08-12T01:57:11.568Z,66.00
2022-08-12T02:00:14.035Z,65.80
2022-08-12T02:03:09.359Z,66.40
2022-08-12T02:06:12.046Z,65.70
2022-08-12T02:09:17.737Z,65.20
2022-08-12T02:11:56.782Z,65.40
2022-08-12T02:14:51.782Z,65.20
2022-08-12T02:18:00.580Z,65.40
2022-08-12T02:20:52.306Z,65.40
2022-08-12T02:23:26.945Z,66.00
2022-08-12T02:26:04.943Z,66.20
2022-08-12T02:28:40.105Z,66.60
2022-08-12T02:31:15.268Z,66.60
2022-08-12T02:33:48.054Z,66.70
2022-08-12T02:36:19.938Z,66.00
2022-08-12T02:38:55.535Z,66.40
2022-08-12T02:41:32.379Z,66.60
2022-08-12T02:44:17.609Z,67.00
2022-08-12T02:46:55.070Z,67.70
2022-08-12T02:49:35.122Z,68.10
2022-08-12T02:52:09.388Z,67.90
2022-08-12T02:54:45.730Z,68.30
2022-08-12T02:57:20.409Z,68.00
2022-08-12T02:59:52.891Z,68.20
2022-08-12T03:02:29.345Z,69.00
2022-08-12T03:05:03.775Z,67.90
2022-08-12T03:07:55.995Z,66.40
2022-08-12T03:10:39.470Z,65.90
2022-08-12T03:13:17.987Z,66.10
2022-08-12T03:15:50.129Z,66.10
2022-08-12T03:18:30.410Z,66.70
2022-08-12T03:21:02.354Z,65.50
2022-08-12T03:23:36.860Z,67.60
2022-08-12T03:26:08.804Z,68.10
2022-08-12T03:28:51.896Z,69.40
2022-08-12T03:31:30.812Z,69.60
2022-08-12T03:34:09.778Z,70.20
2022-08-12T03:36:42.387Z,70.60
2022-08-12T03:39:18.422Z,71.10
2022-08-12T03:42:17.134Z,71.20
2022-08-12T03:45:11.439Z,70.70
2022-08-12T03:48:04.897Z,70.80
2022-08-12T03:50:56.604Z,70.10
2022-08-12T03:53:49.087Z,69.70
2022-08-12T03:56:40.396Z,69.40
2022-08-12T03:59:30.798Z,69.60
2022-08-12T04:02:03.498Z,70.90
2022-08-12T04:04:35.550Z,70.20
2022-08-12T04:07:10.362Z,70.40
2022-08-12T04:09:44.537Z,70.20
2022-08-12T04:12:35.804Z,69.80
2022-08-12T04:15:14.481Z,69.50
2022-08-12T04:18:06.914Z,69.90
2022-08-12T04:20:44.408Z,69.80
2022-08-12T04:23:17.792Z,69.10
2022-08-12T04:25:49.636Z,68.90
2022-08-12T04:28:26.349Z,68.70
2022-08-12T04:30:58.354Z,69.70
2022-08-12T04:33:32.860Z,68.30
2022-08-12T04:36:05.274Z,69.50
2022-08-12T04:38:39.397Z,68.80
2022-08-12T04:41:11.467Z,69.60
2022-08-12T04:43:59.618Z,70.50
2022-08-12T04:46:34.897Z,71.10
2022-08-12T04:49:07.680Z,71.50
2022-08-12T04:51:40.965Z,72.00
2022-08-12T04:54:14.621Z,72.40
2022-08-12T04:57:04.317Z,72.40
2022-08-12T04:59:47.963Z,72.00
2022-08-12T05:02:22.814Z,71.90
2022-08-12T05:05:01.152Z,71.50
2022-08-12T05:07:34.527Z,72.30
2022-08-12T05:10:21.215Z,73.50
2022-08-12T05:13:11.761Z,73.50
2022-08-12T05:16:03.678Z,73.60
2022-08-12T05:18:39.764Z,73.50
2022-08-12T05:21:12.530Z,73.70
2022-08-12T05:23:44.842Z,73.50
2022-08-12T05:26:17.419Z,73.50
2022-08-12T05:28:50.893Z,73.80
2022-08-12T05:31:47.309Z,74.00
2022-08-12T05:34:17.477Z,73.80
2022-08-12T05:36:50.255Z,74.10
2022-08-12T05:39:22.110Z,73.40
2022-08-12T05:41:55.388Z,72.80
2022-08-12T05:44:27.570Z,72.90
2022-08-12T05:47:00.326Z,73.30
2022-08-12T05:49:34.425Z,73.30
2022-08-12T05:52:08.344Z,73.50
2022-08-12T05:54:56.962Z,73.80
2022-08-12T05:57:30.334Z,73.60
2022-08-12T06:00:03.439Z,74.30
2022-08-12T06:02:44.092Z,72.80
2022-08-12T06:05:16.326Z,72.50
2022-08-12T06:08:02.017Z,71.90
2022-08-12T06:10:37.426Z,71.30
2022-08-12T06:13:09.663Z,70.90
2022-08-12T06:15:41.527Z,70.30
2022-08-12T06:18:16.280Z,70.20
2022-08-12T06:20:49.557Z,70.10
2022-08-12T06:23:29.042Z,70.10
2022-08-12T06:26:00.924Z,70.60
2022-08-12T06:28:33.680Z,69.90
2022-08-12T06:35:23.551Z,69.80
2022-08-12T06:36:54.240Z,69.30
2022-08-12T06:39:26.868Z,69.10
2022-08-12T06:42:32.895Z,69.10
2022-08-12T06:45:07.331Z,68.80
2022-08-12T06:47:40.838Z,68.50
2022-08-12T06:50:15.770Z,68.10
2022-08-12T06:52:48.496Z,67.50
2022-08-12T06:55:20.756Z,66.70
2022-08-12T06:58:05.311Z,66.60
2022-08-12T07:00:43.919Z,66.40
2022-08-12T07:03:23.248Z,65.60
2022-08-12T07:05:58.148Z,66.20
2022-08-12T07:08:32.095Z,65.80
2022-08-12T07:11:07.000Z,65.70
2022-08-12T07:14:11.852Z,66.10
2022-08-12T07:17:02.417Z,66.00
2022-08-12T07:19:40.522Z,65.90
2022-08-12T07:22:17.759Z,66.00
2022-08-12T07:25:10.409Z,64.90
2022-08-12T07:27:43.376Z,64.30
2022-08-12T07:30:15.971Z,63.90
2022-08-12T07:32:52.118Z,64.40
2022-08-12T07:35:24.636Z,64.40
2022-08-12T07:37:57.642Z,63.40
2022-08-12T07:40:30.625Z,60.30
2022-08-12T07:43:02.418Z,57.50
2022-08-12T07:45:34.979Z,56.40
2022-08-12T07:48:06.972Z,54.60
2022-08-12T07:50:39.765Z,54.20
2022-08-12T07:53:12.027Z,53.20
2022-08-12T07:55:44.565Z,52.80
2022-08-12T07:58:16.355Z,53.10
2022-08-12T08:00:50.294Z,53.00
2022-08-12T08:03:23.277Z,52.40
2022-08-12T08:05:56.553Z,51.90
2022-08-12T08:08:29.468Z,52.90
2022-08-12T08:11:19.833Z,52.60
2022-08-12T08:13:53.720Z,52.90
2022-08-12T08:16:25.859Z,53.70
2022-08-12T08:18:59.859Z,51.90
2022-08-12T08:21:35.712Z,50.80
2022-08-12T08:24:16.856Z,52.90
2022-08-12T08:26:51.753Z,52.60
2022-08-12T08:29:24.613Z,53.70
2022-08-12T08:32:01.867Z,51.20
2022-08-12T08:34:54.074Z,52.50
2022-08-12T08:37:29.853Z,51.40
2022-08-12T08:40:27.120Z,49.30
2022-08-12T08:42:58.890Z,47.20
2022-08-12T08:45:32.130Z,48.40
2022-08-12T08:48:04.374Z,45.20
2022-08-12T08:50:37.002Z,44.70
2022-08-12T08:53:08.876Z,44.20
2022-08-12T08:56:04.073Z,43.30
2022-08-12T08:58:35.115Z,43.20
2022-08-12T09:01:07.939Z,43.20
2022-08-12T09:06:37.490Z,43.30
2022-08-12T09:09:13.427Z,43.10
2022-08-12T09:12:10.866Z,43.50
2022-08-12T09:14:50.988Z,42.80
2022-08-12T09:17:24.549Z,43.10
2022-08-12T09:19:58.181Z,43.80
2022-08-12T09:22:30.992Z,44.30
2022-08-12T09:25:07.196Z,42.80
2022-08-12T09:30:41.645Z,44.70
2022-08-12T09:33:19.490Z,43.70
2022-08-12T09:36:08.981Z,43.50
2022-08-12T09:38:58.471Z,42.30
2022-08-12T09:42:33.453Z,44.30
2022-08-12T09:45:18.183Z,43.10
2022-08-12T09:47:59.598Z,43.00
2022-08-12T09:50:34.066Z,43.00
2022-08-12T09:53:15.218Z,43.80
2022-08-12T09:56:21.609Z,44.10
2022-08-12T09:58:58.805Z,45.10
2022-08-12T10:02:42.742Z,43.50
2022-08-12T10:04:27.050Z,43.20
2022-08-12T10:07:03.422Z,43.60
2022-08-12T10:09:57.301Z,43.50
2022-08-12T10:13:07.700Z,43.60
2022-08-12T10:16:01.896Z,42.20
2022-08-12T10:18:35.635Z,41.60
2022-08-12T10:21:13.926Z,42.40
2022-08-12T10:23:48.521Z,42.60
2022-08-12T10:26:44.586Z,42.70
2022-08-12T10:30:11.889Z,42.00
2022-08-12T10:32:44.511Z,43.50
2022-08-12T10:35:19.707Z,43.80
2022-08-12T10:38:33.283Z,43.60
2022-08-12T10:41:04.072Z,43.40
2022-08-12T10:43:55.840Z,43.10
2022-08-12T10:46:31.341Z,42.40
2022-08-12T10:49:06.642Z,42.50
2022-08-12T10:52:32.333Z,44.00
2022-08-12T10:54:51.020Z,42.30
2022-08-12T10:58:27.181Z,42.10
2022-08-12T11:00:34.350Z,42.80
2022-08-12T11:04:22.487Z,42.40
2022-08-12T11:07:06.191Z,41.60
2022-08-12T11:08:57.484Z,41.40
2022-08-12T11:12:35.135Z,41.70
2022-08-12T11:14:50.485Z,41.00
2022-08-12T11:17:34.563Z,41.40
2022-08-12T11:20:14.945Z,41.60
2022-08-12T11:23:03.924Z,42.20
2022-08-12T11:25:58.209Z,42.20
2022-08-12T11:28:34.445Z,41.90
2022-08-12T11:31:09.857Z,43.40
2022-08-12T11:34:06.721Z,42.30
2022-08-12T11:36:40.701Z,42.80
2022-08-12T11:39:12.766Z,43.10
2022-08-12T11:41:45.405Z,42.70
2022-08-12T11:44:35.883Z,42.90
2022-08-12T11:56:08.177Z,41.70
2022-08-12T12:02:03.197Z,42.50
2022-08-12T12:04:29.498Z,42.50
2022-08-12T12:07:06.946Z,43.30
2022-08-12T12:09:52.762Z,43.00
2022-08-12T12:12:26.008Z,43.50
2022-08-12T12:15:03.116Z,43.00
2022-08-12T12:17:41.346Z,43.40
2022-08-12T12:20:14.438Z,43.20
2022-08-12T12:22:46.291Z,42.70
2022-08-12T12:25:19.911Z,42.10
2022-08-12T12:28:37.072Z,42.40
2022-08-12T12:31:14.827Z,42.60
2022-08-12T12:33:59.183Z,42.50
2022-08-12T12:36:31.985Z,42.40
2022-08-12T12:39:06.622Z,42.30
2022-08-12T12:42:54.622Z,42.10
2022-08-12T12:44:41.916Z,41.30
2022-08-12T12:47:29.422Z,41.50
2022-08-12T12:50:02.900Z,41.70
2022-08-12T12:52:38.043Z,41.60
2022-08-12T12:55:16.656Z,41.40
2022-08-12T12:58:00.747Z,42.10
2022-08-12T13:00:33.406Z,43.10
2022-08-12T13:03:06.624Z,42.30
2022-08-12T13:05:54.011Z,42.10
2022-08-12T13:08:36.037Z,42.70
2022-08-12T13:11:07.976Z,42.50
2022-08-12T13:14:08.676Z,42.60
2022-08-12T13:16:34.973Z,42.20
2022-08-12T13:19:06.840Z,41.50
2022-08-12T13:22:00.453Z,41.60
2022-08-12T13:24:32.784Z,42.10
2022-08-12T13:27:04.791Z,42.00
2022-08-12T13:29:39.289Z,41.80
2022-08-12T13:32:19.298Z,41.40
2022-08-12T13:35:19.745Z,41.00
2022-08-12T13:37:59.165Z,40.70
2022-08-12T13:40:35.337Z,41.20
2022-08-12T13:43:07.188Z,41.70
2022-08-12T13:45:39.784Z,41.30
2022-08-12T13:48:11.627Z,41.30
2022-08-12T13:50:44.632Z,41.50
2022-08-12T13:53:24.549Z,41.10
2022-08-12T13:55:59.390Z,40.60
2022-08-12T13:58:37.772Z,41.00
2022-08-12T14:01:10.435Z,41.10
2022-08-12T14:03:51.567Z,40.50
2022-08-12T14:06:25.941Z,40.30
2022-08-12T14:09:15.712Z,40.80
2022-08-12T14:11:59.596Z,40.60
2022-08-12T14:14:35.631Z,40.70
2022-08-12T14:17:10.743Z,40.00
2022-08-12T14:20:02.698Z,41.00
2022-08-12T14:22:35.796Z,40.80
2022-08-12T14:25:09.991Z,40.80
2022-08-12T14:28:03.514Z,40.80
2022-08-12T14:31:00.397Z,40.90
2022-08-12T14:33:44.375Z,40.90
2022-08-12T14:36:23.295Z,41.10
2022-08-12T14:38:57.217Z,41.00
2022-08-12T14:41:36.869Z,41.10
2022-08-12T14:44:57.745Z,41.20
2022-08-12T14:47:13.591Z,40.70
2022-08-12T14:50:33.741Z,40.80
2022-08-12T14:58:31.698Z,41.00
2022-08-12T15:01:23.037Z,41.30
2022-08-12T15:03:58.242Z,41.40
2022-08-12T15:06:44.141Z,40.80
2022-08-12T15:09:28.780Z,40.90
2022-08-12T15:12:03.338Z,40.90
2022-08-12T15:14:38.000Z,41.10
2022-08-12T15:17:10.652Z,41.00
2022-08-12T15:20:30.721Z,40.80
2022-08-12T15:22:57.817Z,40.90
2022-08-12T15:25:40.247Z,41.00
2022-08-12T15:28:24.765Z,41.00
2022-08-12T15:30:58.673Z,41.70
2022-08-12T15:33:44.800Z,41.70
2022-08-12T15:36:50.254Z,41.80
2022-08-12T15:39:17.165Z,41.60
2022-08-12T15:41:50.850Z,41.90
2022-08-12T15:44:41.719Z,41.60
2022-08-12T15:47:16.403Z,42.00
2022-08-12T15:49:59.999Z,41.70
2022-08-12T15:52:33.791Z,41.80
2022-08-12T15:55:11.563Z,42.00
2022-08-12T15:57:53.841Z,42.00
2022-08-12T16:00:33.510Z,42.10
2022-08-12T16:03:13.622Z,42.20
2022-08-12T16:06:11.685Z,41.80
2022-08-12T16:08:45.281Z,41.80
2022-08-12T16:11:22.244Z,41.70
2022-08-12T16:13:54.052Z,41.80
2022-08-12T16:16:27.922Z,41.40
2022-08-12T16:19:18.849Z,41.60
2022-08-12T16:21:58.368Z,41.80
2022-08-12T16:24:36.084Z,41.90
2022-08-12T16:27:15.977Z,42.10
2022-08-12T16:29:57.789Z,42.10
2022-08-12T16:32:34.350Z,42.50
2022-08-12T16:35:08.130Z,42.60
2022-08-12T16:38:27.747Z,42.50
2022-08-12T16:40:47.334Z,42.40
2022-08-12T16:43:28.733Z,43.20
2022-08-12T16:46:31.299Z,43.20
2022-08-12T16:49:04.305Z,43.60
2022-08-12T16:51:46.662Z,44.00
2022-08-12T16:54:21.948Z,44.10
2022-08-12T16:57:10.020Z,44.20
2022-08-12T16:59:54.194Z,44.30
2022-08-12T17:02:33.433Z,44.60
2022-08-12T17:05:10.509Z,44.90
2022-08-12T17:07:52.080Z,44.90
2022-08-12T17:10:36.208Z,45.60
2022-08-12T17:13:10.698Z,45.10
2022-08-12T17:15:56.972Z,45.10
2022-08-12T17:18:45.546Z,45.00
2022-08-12T17:21:40.202Z,45.50
2022-08-12T17:24:22.342Z,45.70
2022-08-12T17:26:56.515Z,45.70
2022-08-12T17:30:00.215Z,45.90
2022-08-12T17:32:28.086Z,46.00
2022-08-12T17:35:21.461Z,46.20
2022-08-12T17:37:54.832Z,46.20
2022-08-12T17:40:35.574Z,46.10
2022-08-12T17:43:54.938Z,46.00
2022-08-12T17:46:12.501Z,46.30
2022-08-12T17:48:55.510Z,46.20
2022-08-12T17:51:31.701Z,46.10
2022-08-12T17:54:05.932Z,46.30
2022-08-12T17:56:41.114Z,46.60
2022-08-12T17:59:41.767Z,46.60
2022-08-12T18:02:13.587Z,46.60
2022-08-12T18:05:03.112Z,46.80
2022-08-12T18:07:39.947Z,46.90
2022-08-12T18:10:14.352Z,47.00
2022-08-12T18:12:52.348Z,47.30
2022-08-12T18:15:26.471Z,47.20
2022-08-12T18:18:19.667Z,47.50
2022-08-12T18:20:51.760Z,47.40
2022-08-12T18:23:26.713Z,47.70
2022-08-12T18:26:20.647Z,47.60
2022-08-12T18:28:55.080Z,47.90
2022-08-12T18:31:44.174Z,48.00
2022-08-12T18:34:27.866Z,48.10
2022-08-12T18:37:10.268Z,48.40
2022-08-12T18:40:12.507Z,48.40
2022-08-12T18:42:54.187Z,48.50
2022-08-12T18:45:31.337Z,48.40
2022-08-12T18:48:23.575Z,48.80
2022-08-12T18:51:10.569Z,48.30
2022-08-12T18:54:06.316Z,48.50
2022-08-12T18:56:40.778Z,49.00
2022-08-12T18:59:59.895Z,49.20
2022-08-12T19:02:21.897Z,49.40
2022-08-12T19:04:57.761Z,49.70
2022-08-12T19:07:49.900Z,50.00
2022-08-12T19:10:23.733Z,50.50
2022-08-12T19:13:23.017Z,50.90
2022-08-12T19:15:58.179Z,51.20
2022-08-12T19:18:36.834Z,51.40
2022-08-12T19:21:16.790Z,51.40
2022-08-12T19:24:11.061Z,51.80
2022-08-12T19:26:43.975Z,52.00
2022-08-12T19:29:20.888Z,52.40
2022-08-12T19:31:57.337Z,52.90
2022-08-12T19:38:02.519Z,53.10
2022-08-12T19:40:32.855Z,53.20
2022-08-12T19:43:19.331Z,53.30
2022-08-12T19:45:56.597Z,53.40
2022-08-12T19:48:32.832Z,53.60
2022-08-12T19:51:22.747Z,53.70
2022-08-12T19:53:59.882Z,53.90
2022-08-12T19:56:32.365Z,54.30
2022-08-12T19:59:23.645Z,54.10
2022-08-12T20:02:02.291Z,54.60
2022-08-12T20:04:38.005Z,54.60
2022-08-12T20:07:23.509Z,55.10
2022-08-12T20:09:57.488Z,55.10
2022-08-12T20:12:48.727Z,55.30
2022-08-12T20:15:44.423Z,55.30
2022-08-12T20:18:19.255Z,55.80
2022-08-12T20:21:15.909Z,55.80
2022-08-12T20:24:00.755Z,56.10
2022-08-12T20:26:34.410Z,56.20
2022-08-12T20:29:13.989Z,56.10
2022-08-12T20:31:46.073Z,56.50
2022-08-12T20:34:25.127Z,56.40
2022-08-12T20:37:04.668Z,56.50
2022-08-12T20:39:57.442Z,56.50
2022-08-12T20:42:32.733Z,56.60
2022-08-12T20:45:05.147Z,56.80
2022-08-12T20:47:46.845Z,56.90
2022-08-12T20:50:27.499Z,57.00
2022-08-12T20:52:59.473Z,57.10
2022-08-12T20:55:41.423Z,57.20
2022-08-12T20:58:15.353Z,57.10
2022-08-12T21:00:51.413Z,58.60
2022-08-12T21:03:52.879Z,61.40
2022-08-12T21:06:49.659Z,68.50
2022-08-12T21:09:22.922Z,69.80
2022-08-12T21:11:55.656Z,64.20
2022-08-12T21:14:39.840Z,64.90
2022-08-12T21:17:33.877Z,67.80
2022-08-12T21:20:22.382Z,64.10
2022-08-12T21:22:55.100Z,67.30
2022-08-12T21:25:35.947Z,64.90
2022-08-12T21:28:08.670Z,60.90
2022-08-12T21:32:34.685Z,59.90
2022-08-12T21:33:58.483Z,59.90
2022-08-12T21:36:35.270Z,65.50
2022-08-12T21:39:18.051Z,62.50
2022-08-12T21:41:54.909Z,59.40
2022-08-12T21:45:44.491Z,65.00
2022-08-12T21:47:25.523Z,64.10
2022-08-12T21:50:03.000Z,67.70
2022-08-12T21:52:42.323Z,66.80
2022-08-12T21:55:18.475Z,62.00
2022-08-12T21:57:54.382Z,61.70
2022-08-12T22:00:35.260Z,65.30
2022-08-12T22:04:10.781Z,63.90
2022-08-12T22:06:30.547Z,61.00
2022-08-12T22:09:17.650Z,64.90
2022-08-12T22:11:59.326Z,61.80
2022-08-12T22:14:31.520Z,62.40
2022-08-12T22:17:05.178Z,61.90
2022-08-12T22:19:40.269Z,67.40
2022-08-12T22:22:15.853Z,66.00
2022-08-12T22:24:47.928Z,65.50
2022-08-12T22:27:32.402Z,61.70
2022-08-12T22:30:25.040Z,62.40
2022-08-12T22:32:58.898Z,63.60
2022-08-12T22:35:55.552Z,64.80
2022-08-12T22:38:28.908Z,63.10
2022-08-12T22:41:05.288Z,63.90
2022-08-12T22:44:00.656Z,60.90
2022-08-12T22:46:54.100Z,63.50
2022-08-12T22:49:36.853Z,63.10
2022-08-12T22:52:23.334Z,65.50
2022-08-12T22:55:03.782Z,63.00
2022-08-12T22:57:49.770Z,60.60
2022-08-12T23:00:28.189Z,61.00
2022-08-12T23:03:03.437Z,60.30
2022-08-12T23:05:57.291Z,63.90
2022-08-12T23:08:32.658Z,64.10
2022-08-12T23:11:06.412Z,62.30
2022-08-12T23:13:48.573Z,64.30
2022-08-12T23:16:27.850Z,63.50
2022-08-12T23:19:17.803Z,60.50
2022-08-12T23:22:06.540Z,59.70
2022-08-12T23:24:55.583Z,61.20
2022-08-12T23:27:52.192Z,60.40
2022-08-12T23:30:31.571Z,60.00
2022-08-12T23:33:20.025Z,60.50
2022-08-12T23:36:02.609Z,60.60
2022-08-12T23:38:35.806Z,60.40
2022-08-12T23:41:11.225Z,61.80
2022-08-12T23:43:48.748Z,60.50
2022-08-12T23:46:25.782Z,61.60
2022-08-12T23:49:01.056Z,61.00
2022-08-12T23:51:36.396Z,61.10
2022-08-12T23:54:10.791Z,62.00
2022-08-12T23:57:11.285Z,60.20
2022-08-12T23:59:55.659Z,61.30
